Weather at University of Kentucky Hospital Heliport

Public forecast

Using degrees Fahrenheit for public forecast. Weather courtesy of forecast.io.

Closest aviation weather report (METAR) to University of Kentucky Hospital Heliport

Closest report is Blue Grass Airport, 4.6 nm (8.6 km) W. Retrieved 2021/06/23 02:54 UTC (7 minutes ago):

KLEX 230254Z 05003KT 10SM CLR 14/07 A3010 RMK AO2 SLP187 T01440072 51016

Closest aviation forecast (TAF) to University of Kentucky Hospital Heliport

Forecast is more than 6 hours old.

Closest forecast is Blue Grass Airport, 4.6 nm (8.6 km) W. Retrieved 2021/06/22 18:22 UTC (9 hours ago):

TAF KLEX 221720Z 2218/2318 35010KT P6SM FEW060 FM230000 VRB03KT P6SM SKC FM231300 11011KT P6SM FEW200